sensor_id;sensor_type;location;lat;lon;timestamp;pressure;altitude;pressure_sealevel;temperature;humidity
42001;BME280;27689;48.390;10.856;2022-09-12T00:01:43;96333.00;;;12.81;100.00
42001;BME280;27689;48.390;10.856;2022-09-12T00:04:27;96337.59;;;12.79;100.00
42001;BME280;27689;48.390;10.856;2022-09-12T00:07:11;96336.47;;;12.82;100.00
42001;BME280;27689;48.390;10.856;2022-09-12T00:09:55;96334.13;;;12.79;100.00
42001;BME280;27689;48.390;10.856;2022-09-12T00:12:39;96335.28;;;12.76;100.00
42001;BME280;27689;48.390;10.856;2022-09-12T00:15:23;96333.06;;;12.63;100.00
42001;BME280;27689;48.390;10.856;2022-09-12T00:18:14;96328.56;;;12.56;100.00
42001;BME280;27689;48.390;10.856;2022-09-12T00:21:02;96331.22;;;12.56;100.00
42001;BME280;27689;48.390;10.856;2022-09-12T00:23:47;96326.41;;;12.51;100.00
42001;BME280;27689;48.390;10.856;2022-09-12T00:26:31;96330.16;;;12.49;100.00
42001;BME280;27689;48.390;10.856;2022-09-12T00:29:18;96326.84;;;12.47;100.00
42001;BME280;27689;48.390;10.856;2022-09-12T00:32:02;96323.94;;;12.50;100.00
42001;BME280;27689;48.390;10.856;2022-09-12T00:34:46;96322.06;;;12.42;100.00
42001;BME280;27689;48.390;10.856;2022-09-12T00:37:30;96328.50;;;12.48;100.00
42001;BME280;27689;48.390;10.856;2022-09-12T00:40:14;96324.47;;;12.35;100.00
42001;BME280;27689;48.390;10.856;2022-09-12T00:42:58;96325.59;;;12.33;100.00
42001;BME280;27689;48.390;10.856;2022-09-12T00:45:42;96327.59;;;12.31;100.00
42001;BME280;27689;48.390;10.856;2022-09-12T00:48:38;96321.50;;;12.30;100.00
42001;BME280;27689;48.390;10.856;2022-09-12T00:51:24;96317.38;;;12.10;100.00
42001;BME280;27689;48.390;10.856;2022-09-12T00:54:11;96314.16;;;11.98;100.00
42001;BME280;27689;48.390;10.856;2022-09-12T00:57:01;96308.69;;;11.92;100.00
42001;BME280;27689;48.390;10.856;2022-09-12T00:59:50;96311.53;;;11.81;100.00
42001;BME280;27689;48.390;10.856;2022-09-12T01:02:35;96299.78;;;11.75;100.00
42001;BME280;27689;48.390;10.856;2022-09-12T01:05:21;96296.56;;;11.63;100.00
42001;BME280;27689;48.390;10.856;2022-09-12T01:08:06;96293.88;;;11.55;100.00
42001;BME280;27689;48.390;10.856;2022-09-12T01:10:51;96295.13;;;11.51;100.00
42001;BME280;27689;48.390;10.856;2022-09-12T01:13:35;96288.09;;;11.52;100.00
42001;BME280;27689;48.390;10.856;2022-09-12T01:16:19;96291.59;;;11.60;100.00
42001;BME280;27689;48.390;10.856;2022-09-12T01:22:22;96278.28;;;11.72;100.00
42001;BME280;27689;48.390;10.856;2022-09-12T01:31:51;96275.91;;;11.78;100.00
42001;BME280;27689;48.390;10.856;2022-09-12T01:34:48;96275.75;;;11.80;100.00
42001;BME280;27689;48.390;10.856;2022-09-12T01:37:53;96265.94;;;11.82;100.00
42001;BME280;27689;48.390;10.856;2022-09-12T01:43:46;96278.94;;;11.74;100.00
42001;BME280;27689;48.390;10.856;2022-09-12T01:49:40;96268.09;;;11.69;100.00
42001;BME280;27689;48.390;10.856;2022-09-12T01:52:51;96260.56;;;11.74;100.00
42001;BME280;27689;48.390;10.856;2022-09-12T01:55:41;96261.13;;;11.77;100.00
42001;BME280;27689;48.390;10.856;2022-09-12T01:58:34;96261.13;;;11.77;100.00
42001;BME280;27689;48.390;10.856;2022-09-12T02:01:24;96258.50;;;11.77;100.00
42001;BME280;27689;48.390;10.856;2022-09-12T02:04:19;96260.84;;;11.80;100.00
42001;BME280;27689;48.390;10.856;2022-09-12T02:07:35;96250.34;;;11.80;100.00
42001;BME280;27689;48.390;10.856;2022-09-12T02:10:25;96256.72;;;11.78;100.00
42001;BME280;27689;48.390;10.856;2022-09-12T02:13:17;96251.59;;;11.76;100.00
42001;BME280;27689;48.390;10.856;2022-09-12T02:16:19;96249.03;;;11.66;100.00
42001;BME280;27689;48.390;10.856;2022-09-12T02:19:10;96247.91;;;11.69;100.00
42001;BME280;27689;48.390;10.856;2022-09-12T02:21:58;96233.56;;;11.46;100.00
42001;BME280;27689;48.390;10.856;2022-09-12T02:24:45;96251.94;;;11.46;100.00
42001;BME280;27689;48.390;10.856;2022-09-12T02:27:41;96243.47;;;11.52;100.00
42001;BME280;27689;48.390;10.856;2022-09-12T02:30:35;96244.16;;;11.54;100.00
42001;BME280;27689;48.390;10.856;2022-09-12T02:36:38;96246.84;;;11.44;100.00
42001;BME280;27689;48.390;10.856;2022-09-12T02:39:26;96239.03;;;11.35;100.00
42001;BME280;27689;48.390;10.856;2022-09-12T02:42:11;96233.78;;;11.35;100.00
42001;BME280;27689;48.390;10.856;2022-09-12T02:44:55;96239.72;;;11.37;100.00
42001;BME280;27689;48.390;10.856;2022-09-12T02:47:43;96240.97;;;11.32;100.00
42001;BME280;27689;48.390;10.856;2022-09-12T02:50:30;96235.59;;;11.34;100.00
42001;BME280;27689;48.390;10.856;2022-09-12T02:53:14;96236.28;;;11.36;100.00
42001;BME280;27689;48.390;10.856;2022-09-12T02:55:59;96232.28;;;11.32;100.00
42001;BME280;27689;48.390;10.856;2022-09-12T02:58:43;96228.97;;;11.30;100.00
42001;BME280;27689;48.390;10.856;2022-09-12T03:01:52;96230.78;;;11.29;100.00
42001;BME280;27689;48.390;10.856;2022-09-12T03:08:02;96230.31;;;11.16;100.00
42001;BME280;27689;48.390;10.856;2022-09-12T03:11:23;96226.72;;;11.17;100.00
42001;BME280;27689;48.390;10.856;2022-09-12T03:20:23;96230.09;;;11.10;100.00
42001;BME280;27689;48.390;10.856;2022-09-12T03:23:37;96229.41;;;11.08;100.00
42001;BME280;27689;48.390;10.856;2022-09-12T03:26:31;96227.16;;;10.95;100.00
42001;BME280;27689;48.390;10.856;2022-09-12T03:29:18;96223.59;;;10.86;100.00
42001;BME280;27689;48.390;10.856;2022-09-12T03:32:02;96229.13;;;10.83;100.00
42001;BME280;27689;48.390;10.856;2022-09-12T03:34:46;96222.25;;;10.82;100.00
42001;BME280;27689;48.390;10.856;2022-09-12T03:37:30;96219.03;;;10.88;100.00
42001;BME280;27689;48.390;10.856;2022-09-12T03:40:14;96223.88;;;10.83;100.00
42001;BME280;27689;48.390;10.856;2022-09-12T03:42:58;96227.09;;;10.77;100.00
42001;BME280;27689;48.390;10.856;2022-09-12T03:45:42;96232.22;;;10.69;100.00
42001;BME280;27689;48.390;10.856;2022-09-12T03:48:26;96231.25;;;10.70;100.00
42001;BME280;27689;48.390;10.856;2022-09-12T03:51:10;96232.75;;;10.73;100.00
42001;BME280;27689;48.390;10.856;2022-09-12T03:53:54;96229.44;;;10.71;100.00
42001;BME280;27689;48.390;10.856;2022-09-12T03:56:38;96230.28;;;10.71;100.00
42001;BME280;27689;48.390;10.856;2022-09-12T03:59:23;96228.34;;;10.73;100.00
42001;BME280;27689;48.390;10.856;2022-09-12T04:02:07;96228.47;;;10.72;100.00
42001;BME280;27689;48.390;10.856;2022-09-12T04:04:54;96231.09;;;10.72;100.00
42001;BME280;27689;48.390;10.856;2022-09-12T04:07:38;96240.75;;;10.71;100.00
42001;BME280;27689;48.390;10.856;2022-09-12T04:10:23;96234.59;;;10.63;100.00
42001;BME280;27689;48.390;10.856;2022-09-12T04:13:07;96229.09;;;10.56;100.00
42001;BME280;27689;48.390;10.856;2022-09-12T04:16:00;96225.41;;;10.49;100.00
42001;BME280;27689;48.390;10.856;2022-09-12T04:18:44;96229.69;;;10.50;100.00
42001;BME280;27689;48.390;10.856;2022-09-12T04:21:28;96225.13;;;10.52;100.00
42001;BME280;27689;48.390;10.856;2022-09-12T04:24:12;96232.03;;;10.43;100.00
42001;BME280;27689;48.390;10.856;2022-09-12T04:26:56;96230.00;;;10.37;100.00
42001;BME280;27689;48.390;10.856;2022-09-12T04:29:40;96223.53;;;10.32;100.00
42001;BME280;27689;48.390;10.856;2022-09-12T04:32:24;96225.75;;;10.36;100.00
42001;BME280;27689;48.390;10.856;2022-09-12T04:35:08;96218.25;;;10.41;100.00
42001;BME280;27689;48.390;10.856;2022-09-12T04:37:54;96220.22;;;10.30;100.00
42001;BME280;27689;48.390;10.856;2022-09-12T04:40:38;96221.34;;;10.17;100.00
42001;BME280;27689;48.390;10.856;2022-09-12T04:43:22;96216.69;;;10.21;100.00
42001;BME280;27689;48.390;10.856;2022-09-12T04:46:08;96222.63;;;10.23;100.00
42001;BME280;27689;48.390;10.856;2022-09-12T04:48:52;96222.59;;;10.13;100.00
42001;BME280;27689;48.390;10.856;2022-09-12T04:51:38;96227.13;;;10.11;100.00
42001;BME280;27689;48.390;10.856;2022-09-12T04:54:23;96233.59;;;10.17;100.00
42001;BME280;27689;48.390;10.856;2022-09-12T04:57:07;96228.00;;;10.21;100.00
42001;BME280;27689;48.390;10.856;2022-09-12T04:59:51;96227.16;;;10.21;100.00
42001;BME280;27689;48.390;10.856;2022-09-12T05:02:35;96235.84;;;10.21;100.00
42001;BME280;27689;48.390;10.856;2022-09-12T05:05:19;96231.56;;;10.20;100.00
42001;BME280;27689;48.390;10.856;2022-09-12T05:08:03;96231.44;;;10.22;100.00
42001;BME280;27689;48.390;10.856;2022-09-12T05:10:47;96232.25;;;10.22;100.00
42001;BME280;27689;48.390;10.856;2022-09-12T05:13:31;96235.53;;;10.24;100.00
42001;BME280;27689;48.390;10.856;2022-09-12T05:16:16;96238.16;;;10.24;100.00
42001;BME280;27689;48.390;10.856;2022-09-12T05:19:01;96236.94;;;10.19;100.00
42001;BME280;27689;48.390;10.856;2022-09-12T05:21:45;96239.66;;;10.17;100.00
42001;BME280;27689;48.390;10.856;2022-09-12T05:24:29;96233.59;;;10.27;100.00
42001;BME280;27689;48.390;10.856;2022-09-12T05:27:13;96240.13;;;10.22;100.00
42001;BME280;27689;48.390;10.856;2022-09-12T05:29:57;96240.91;;;10.13;100.00
42001;BME280;27689;48.390;10.856;2022-09-12T05:32:41;96241.50;;;10.07;100.00
42001;BME280;27689;48.390;10.856;2022-09-12T05:35:25;96246.31;;;10.02;100.00
42001;BME280;27689;48.390;10.856;2022-09-12T05:38:09;96247.56;;;10.08;100.00
42001;BME280;27689;48.390;10.856;2022-09-12T05:43:54;96251.09;;;10.16;100.00
42001;BME280;27689;48.390;10.856;2022-09-12T05:46:40;96255.25;;;10.29;100.00
42001;BME280;27689;48.390;10.856;2022-09-12T05:49:25;96253.84;;;10.34;100.00
42001;BME280;27689;48.390;10.856;2022-09-12T05:52:09;96255.25;;;10.38;100.00
42001;BME280;27689;48.390;10.856;2022-09-12T05:54:52;96249.41;;;10.44;100.00
42001;BME280;27689;48.390;10.856;2022-09-12T05:57:37;96251.19;;;10.53;100.00
42001;BME280;27689;48.390;10.856;2022-09-12T06:00:21;96256.53;;;10.62;100.00
42001;BME280;27689;48.390;10.856;2022-09-12T06:03:04;96253.16;;;10.69;100.00
42001;BME280;27689;48.390;10.856;2022-09-12T06:05:48;96255.91;;;10.77;100.00
42001;BME280;27689;48.390;10.856;2022-09-12T06:08:33;96262.53;;;10.81;100.00
42001;BME280;27689;48.390;10.856;2022-09-12T06:11:23;96256.84;;;10.86;100.00
42001;BME280;27689;48.390;10.856;2022-09-12T06:14:10;96258.34;;;10.88;100.00
42001;BME280;27689;48.390;10.856;2022-09-12T06:16:54;96269.31;;;11.02;100.00
42001;BME280;27689;48.390;10.856;2022-09-12T06:19:38;96265.00;;;11.10;100.00
42001;BME280;27689;48.390;10.856;2022-09-12T06:22:23;96256.69;;;11.15;100.00
42001;BME280;27689;48.390;10.856;2022-09-12T06:25:07;96255.81;;;11.24;100.00
42001;BME280;27689;48.390;10.856;2022-09-12T06:27:51;96254.91;;;11.33;100.00
42001;BME280;27689;48.390;10.856;2022-09-12T06:30:35;96250.13;;;11.46;100.00
42001;BME280;27689;48.390;10.856;2022-09-12T06:33:19;96246.63;;;11.55;100.00
42001;BME280;27689;48.390;10.856;2022-09-12T06:36:09;96252.03;;;11.72;100.00
42001;BME280;27689;48.390;10.856;2022-09-12T06:39:01;96247.13;;;11.86;100.00
42001;BME280;27689;48.390;10.856;2022-09-12T06:41:47;96245.59;;;12.02;100.00
42001;BME280;27689;48.390;10.856;2022-09-12T06:44:32;96239.94;;;12.14;100.00
42001;BME280;27689;48.390;10.856;2022-09-12T06:47:16;96244.94;;;12.25;100.00
42001;BME280;27689;48.390;10.856;2022-09-12T06:50:00;96242.06;;;12.36;100.00
42001;BME280;27689;48.390;10.856;2022-09-12T06:52:44;96240.13;;;12.47;100.00
42001;BME280;27689;48.390;10.856;2022-09-12T06:55:27;96238.44;;;12.63;100.00
42001;BME280;27689;48.390;10.856;2022-09-12T06:58:12;96251.31;;;12.75;100.00
42001;BME280;27689;48.390;10.856;2022-09-12T07:01:01;96236.41;;;12.83;100.00
42001;BME280;27689;48.390;10.856;2022-09-12T07:03:54;96246.31;;;12.89;100.00
42001;BME280;27689;48.390;10.856;2022-09-12T07:06:42;96239.28;;;13.06;100.00
42001;BME280;27689;48.390;10.856;2022-09-12T07:09:27;96238.88;;;13.19;100.00
42001;BME280;27689;48.390;10.856;2022-09-12T07:12:13;96247.13;;;13.32;100.00
42001;BME280;27689;48.390;10.856;2022-09-12T07:14:57;96250.28;;;13.44;100.00
42001;BME280;27689;48.390;10.856;2022-09-12T07:17:41;96256.06;;;13.55;100.00
42001;BME280;27689;48.390;10.856;2022-09-12T07:20:25;96246.53;;;13.70;100.00
42001;BME280;27689;48.390;10.856;2022-09-12T07:23:09;96245.75;;;13.78;100.00
42001;BME280;27689;48.390;10.856;2022-09-12T07:25:54;96248.53;;;13.85;100.00
42001;BME280;27689;48.390;10.856;2022-09-12T07:28:39;96244.75;;;13.95;99.81
42001;BME280;27689;48.390;10.856;2022-09-12T07:31:25;96246.72;;;14.01;98.43
42001;BME280;27689;48.390;10.856;2022-09-12T07:34:10;96243.94;;;14.03;96.92
42001;BME280;27689;48.390;10.856;2022-09-12T07:36:54;96228.63;;;14.15;98.13
42001;BME280;27689;48.390;10.856;2022-09-12T07:39:38;96237.97;;;14.25;96.28
42001;BME280;27689;48.390;10.856;2022-09-12T07:42:22;96239.63;;;14.26;95.81
42001;BME280;27689;48.390;10.856;2022-09-12T07:45:06;96249.50;;;14.32;97.13
42001;BME280;27689;48.390;10.856;2022-09-12T07:47:52;96247.22;;;14.37;96.63
42001;BME280;27689;48.390;10.856;2022-09-12T07:50:37;96252.66;;;14.44;96.04
42001;BME280;27689;48.390;10.856;2022-09-12T07:53:21;96252.66;;;14.52;94.00
42001;BME280;27689;48.390;10.856;2022-09-12T07:56:07;96250.97;;;14.59;95.58
42001;BME280;27689;48.390;10.856;2022-09-12T07:58:53;96255.22;;;14.76;96.74
42001;BME280;27689;48.390;10.856;2022-09-12T08:01:37;96253.38;;;14.93;96.80
42001;BME280;27689;48.390;10.856;2022-09-12T08:04:22;96255.28;;;15.07;94.57
42001;BME280;27689;48.390;10.856;2022-09-12T08:07:07;96252.00;;;15.05;92.95
42001;BME280;27689;48.390;10.856;2022-09-12T08:09:51;96251.19;;;15.05;92.70
42001;BME280;27689;48.390;10.856;2022-09-12T08:12:35;96254.63;;;15.13;93.05
42001;BME280;27689;48.390;10.856;2022-09-12T08:15:20;96255.59;;;15.43;97.40
42001;BME280;27689;48.390;10.856;2022-09-12T08:18:03;96253.88;;;15.67;93.40
42001;BME280;27689;48.390;10.856;2022-09-12T08:20:47;96257.81;;;15.94;92.85
42001;BME280;27689;48.390;10.856;2022-09-12T08:23:32;96253.28;;;16.40;91.00
42001;BME280;27689;48.390;10.856;2022-09-12T08:26:16;96261.50;;;16.68;88.07
42001;BME280;27689;48.390;10.856;2022-09-12T08:29:00;96248.72;;;16.86;89.12
42001;BME280;27689;48.390;10.856;2022-09-12T08:31:44;96250.00;;;17.19;86.76
42001;BME280;27689;48.390;10.856;2022-09-12T08:34:29;96251.06;;;17.40;83.82
42001;BME280;27689;48.390;10.856;2022-09-12T08:37:13;96242.25;;;17.90;82.95
42001;BME280;27689;48.390;10.856;2022-09-12T08:39:57;96237.91;;;18.25;77.30
42001;BME280;27689;48.390;10.856;2022-09-12T08:42:53;96239.06;;;18.44;81.29
42001;BME280;27689;48.390;10.856;2022-09-12T08:45:52;96236.00;;;18.68;79.63
42001;BME280;27689;48.390;10.856;2022-09-12T08:48:40;96236.56;;;18.91;79.46
42001;BME280;27689;48.390;10.856;2022-09-12T08:51:24;96231.28;;;18.98;75.21
42001;BME280;27689;48.390;10.856;2022-09-12T08:54:19;96242.19;;;19.16;73.20
42001;BME280;27689;48.390;10.856;2022-09-12T08:57:05;96241.69;;;19.41;73.74
42001;BME280;27689;48.390;10.856;2022-09-12T08:59:52;96239.50;;;19.51;74.39
42001;BME280;27689;48.390;10.856;2022-09-12T09:03:03;96236.91;;;19.64;73.99
42001;BME280;27689;48.390;10.856;2022-09-12T09:06:14;96232.47;;;19.84;69.73
42001;BME280;27689;48.390;10.856;2022-09-12T09:09:14;96232.91;;;20.01;70.02
42001;BME280;27689;48.390;10.856;2022-09-12T09:15:13;96225.34;;;20.31;67.33
42001;BME280;27689;48.390;10.856;2022-09-12T09:18:23;96224.72;;;20.22;67.69
42001;BME280;27689;48.390;10.856;2022-09-12T09:21:24;96226.38;;;20.30;64.39
42001;BME280;27689;48.390;10.856;2022-09-12T09:24:15;96221.88;;;20.50;66.76
42001;BME280;27689;48.390;10.856;2022-09-12T09:27:09;96215.13;;;20.54;67.13
42001;BME280;27689;48.390;10.856;2022-09-12T09:29:56;96221.84;;;20.63;66.94
42001;BME280;27689;48.390;10.856;2022-09-12T09:32:40;96213.25;;;20.74;65.36
42001;BME280;27689;48.390;10.856;2022-09-12T09:35:38;96216.91;;;20.87;65.41
42001;BME280;27689;48.390;10.856;2022-09-12T09:41:20;96218.97;;;20.85;64.23
42001;BME280;27689;48.390;10.856;2022-09-12T09:44:06;96218.94;;;20.98;64.56
42001;BME280;27689;48.390;10.856;2022-09-12T09:46:53;96216.84;;;21.13;64.79
42001;BME280;27689;48.390;10.856;2022-09-12T09:49:38;96206.59;;;21.10;64.61
42001;BME280;27689;48.390;10.856;2022-09-12T09:52:28;96208.63;;;21.28;64.38
42001;BME280;27689;48.390;10.856;2022-09-12T09:55:17;96210.28;;;21.22;60.65
42001;BME280;27689;48.390;10.856;2022-09-12T09:58:03;96204.44;;;21.45;63.93
42001;BME280;27689;48.390;10.856;2022-09-12T10:00:47;96199.94;;;21.45;62.68
42001;BME280;27689;48.390;10.856;2022-09-12T10:03:38;96202.34;;;21.54;62.67
42001;BME280;27689;48.390;10.856;2022-09-12T10:06:32;96194.44;;;21.72;62.91
42001;BME280;27689;48.390;10.856;2022-09-12T10:09:42;96194.84;;;21.75;63.22
42001;BME280;27689;48.390;10.856;2022-09-12T10:12:26;96196.00;;;21.86;61.52
42001;BME280;27689;48.390;10.856;2022-09-12T10:15:20;96194.75;;;21.89;61.67
42001;BME280;27689;48.390;10.856;2022-09-12T10:18:04;96193.13;;;21.88;60.04
42001;BME280;27689;48.390;10.856;2022-09-12T10:20:48;96190.22;;;21.96;58.79
42001;BME280;27689;48.390;10.856;2022-09-12T10:23:34;96192.53;;;22.17;55.94
42001;BME280;27689;48.390;10.856;2022-09-12T10:26:20;96192.31;;;22.43;56.21
42001;BME280;27689;48.390;10.856;2022-09-12T10:29:22;96194.59;;;22.65;54.79
42001;BME280;27689;48.390;10.856;2022-09-12T10:32:08;96190.81;;;22.72;55.98
42001;BME280;27689;48.390;10.856;2022-09-12T10:34:53;96186.94;;;22.93;55.55
42001;BME280;27689;48.390;10.856;2022-09-12T10:37:39;96184.97;;;23.00;56.83
42001;BME280;27689;48.390;10.856;2022-09-12T10:40:36;96184.63;;;22.97;53.86
42001;BME280;27689;48.390;10.856;2022-09-12T10:43:40;96179.63;;;23.00;53.70
42001;BME280;27689;48.390;10.856;2022-09-12T10:46:28;96184.72;;;23.08;56.48
42001;BME280;27689;48.390;10.856;2022-09-12T10:49:25;96182.03;;;23.27;53.60
42001;BME280;27689;48.390;10.856;2022-09-12T10:52:36;96175.69;;;23.39;57.42
42001;BME280;27689;48.390;10.856;2022-09-12T10:55:27;96177.19;;;23.53;52.90
42001;BME280;27689;48.390;10.856;2022-09-12T11:04:45;96161.19;;;23.47;54.95
42001;BME280;27689;48.390;10.856;2022-09-12T11:07:45;96155.19;;;23.51;53.43
42001;BME280;27689;48.390;10.856;2022-09-12T11:10:43;96158.72;;;23.45;49.79
42001;BME280;27689;48.390;10.856;2022-09-12T11:19:46;96152.09;;;23.66;53.59
42001;BME280;27689;48.390;10.856;2022-09-12T11:25:54;96152.72;;;23.80;54.91
42001;BME280;27689;48.390;10.856;2022-09-12T11:29:03;96152.88;;;23.85;54.94
42001;BME280;27689;48.390;10.856;2022-09-12T11:32:09;96160.03;;;23.73;50.14
42001;BME280;27689;48.390;10.856;2022-09-12T11:37:57;96156.50;;;24.02;53.40
42001;BME280;27689;48.390;10.856;2022-09-12T11:44:03;96147.13;;;24.23;54.07
42001;BME280;27689;48.390;10.856;2022-09-12T11:46:53;96151.81;;;24.39;54.63
42001;BME280;27689;48.390;10.856;2022-09-12T11:49:56;96155.19;;;24.46;54.36
42001;BME280;27689;48.390;10.856;2022-09-12T11:52:42;96147.84;;;24.42;53.38
42001;BME280;27689;48.390;10.856;2022-09-12T11:55:43;96148.06;;;24.52;51.51
42001;BME280;27689;48.390;10.856;2022-09-12T11:58:29;96148.06;;;24.52;52.68
42001;BME280;27689;48.390;10.856;2022-09-12T12:01:20;96146.94;;;24.48;51.40
42001;BME280;27689;48.390;10.856;2022-09-12T12:04:10;96135.97;;;24.26;50.35
42001;BME280;27689;48.390;10.856;2022-09-12T12:07:03;96144.13;;;24.31;51.79
42001;BME280;27689;48.390;10.856;2022-09-12T12:09:50;96140.63;;;24.31;52.12
42001;BME280;27689;48.390;10.856;2022-09-12T12:12:34;96143.28;;;24.54;51.41
42001;BME280;27689;48.390;10.856;2022-09-12T12:15:20;96137.94;;;24.54;49.92
42001;BME280;27689;48.390;10.856;2022-09-12T12:18:18;96145.63;;;24.62;49.80
42001;BME280;27689;48.390;10.856;2022-09-12T12:24:20;96132.59;;;24.54;50.21
42001;BME280;27689;48.390;10.856;2022-09-12T12:27:23;96126.53;;;24.58;49.69
42001;BME280;27689;48.390;10.856;2022-09-12T12:38:42;96095.28;;;24.76;49.12
42001;BME280;27689;48.390;10.856;2022-09-12T12:47:31;96094.19;;;25.00;48.45
42001;BME280;27689;48.390;10.856;2022-09-12T12:53:25;96089.19;;;24.80;44.61
42001;BME280;27689;48.390;10.856;2022-09-12T12:59:21;96083.91;;;25.09;45.55
42001;BME280;27689;48.390;10.856;2022-09-12T13:02:18;96078.56;;;25.37;46.75
42001;BME280;27689;48.390;10.856;2022-09-12T13:05:16;96073.72;;;25.51;44.35
42001;BME280;27689;48.390;10.856;2022-09-12T13:08:06;96076.53;;;25.73;45.92
42001;BME280;27689;48.390;10.856;2022-09-12T13:10:55;96067.28;;;25.97;45.78
42001;BME280;27689;48.390;10.856;2022-09-12T13:16:36;96066.44;;;26.30;45.61
42001;BME280;27689;48.390;10.856;2022-09-12T13:19:26;96056.66;;;26.24;43.94
42001;BME280;27689;48.390;10.856;2022-09-12T13:22:12;96058.47;;;26.18;43.12
42001;BME280;27689;48.390;10.856;2022-09-12T13:24:57;96056.50;;;26.14;44.08
42001;BME280;27689;48.390;10.856;2022-09-12T13:27:55;96053.09;;;26.02;44.79
42001;BME280;27689;48.390;10.856;2022-09-12T13:30:42;96055.53;;;25.86;45.02
42001;BME280;27689;48.390;10.856;2022-09-12T13:33:55;96052.09;;;25.57;45.40
42001;BME280;27689;48.390;10.856;2022-09-12T13:36:48;96041.72;;;25.33;45.20
42001;BME280;27689;48.390;10.856;2022-09-12T13:42:35;96040.78;;;25.10;46.26
42001;BME280;27689;48.390;10.856;2022-09-12T13:45:24;96026.03;;;24.96;46.82
42001;BME280;27689;48.390;10.856;2022-09-12T13:48:16;96030.00;;;24.93;47.02
42001;BME280;27689;48.390;10.856;2022-09-12T13:51:02;96035.38;;;24.82;46.82
42001;BME280;27689;48.390;10.856;2022-09-12T13:53:48;96033.19;;;24.67;45.38
42001;BME280;27689;48.390;10.856;2022-09-12T13:56:32;96027.13;;;24.32;44.74
42001;BME280;27689;48.390;10.856;2022-09-12T13:59:16;96032.22;;;24.10;47.21
42001;BME280;27689;48.390;10.856;2022-09-12T14:01:59;96025.91;;;24.04;48.14
42001;BME280;27689;48.390;10.856;2022-09-12T14:04:50;96026.28;;;23.96;48.60
42001;BME280;27689;48.390;10.856;2022-09-12T14:08:05;96024.78;;;24.00;49.08
42001;BME280;27689;48.390;10.856;2022-09-12T14:10:51;96018.84;;;23.98;46.64
42001;BME280;27689;48.390;10.856;2022-09-12T14:13:36;96022.69;;;24.02;48.21
42001;BME280;27689;48.390;10.856;2022-09-12T14:16:24;96022.31;;;23.99;47.65
42001;BME280;27689;48.390;10.856;2022-09-12T14:19:11;96020.47;;;23.99;49.08
42001;BME280;27689;48.390;10.856;2022-09-12T14:21:57;96017.56;;;23.89;47.05
42001;BME280;27689;48.390;10.856;2022-09-12T14:24:41;96021.03;;;23.89;48.67
42001;BME280;27689;48.390;10.856;2022-09-12T14:27:38;96017.44;;;23.72;48.16
42001;BME280;27689;48.390;10.856;2022-09-12T14:30:32;96005.34;;;23.70;48.51
42001;BME280;27689;48.390;10.856;2022-09-12T14:33:18;96007.41;;;23.68;48.25
42001;BME280;27689;48.390;10.856;2022-09-12T14:36:15;96007.28;;;23.63;45.64
42001;BME280;27689;48.390;10.856;2022-09-12T14:39:06;96003.16;;;23.48;45.78
42001;BME280;27689;48.390;10.856;2022-09-12T14:42:04;96002.09;;;23.26;44.43
42001;BME280;27689;48.390;10.856;2022-09-12T14:44:56;96007.81;;;23.30;46.06
42001;BME280;27689;48.390;10.856;2022-09-12T14:47:42;96009.72;;;23.11;45.25
42001;BME280;27689;48.390;10.856;2022-09-12T14:50:31;96007.16;;;23.16;46.98
42001;BME280;27689;48.390;10.856;2022-09-12T14:56:11;96006.94;;;22.88;44.50
42001;BME280;27689;48.390;10.856;2022-09-12T14:59:19;96002.63;;;22.86;47.49
42001;BME280;27689;48.390;10.856;2022-09-12T15:07:59;95987.53;;;22.62;45.40
42001;BME280;27689;48.390;10.856;2022-09-12T15:10:43;95983.06;;;22.56;45.24
42001;BME280;27689;48.390;10.856;2022-09-12T15:13:27;95989.00;;;22.58;47.29
42001;BME280;27689;48.390;10.856;2022-09-12T15:16:14;95981.47;;;22.55;44.85
42001;BME280;27689;48.390;10.856;2022-09-12T15:18:58;95983.13;;;22.38;45.14
42001;BME280;27689;48.390;10.856;2022-09-12T15:21:42;95971.84;;;22.36;47.97
42001;BME280;27689;48.390;10.856;2022-09-12T15:24:26;95975.50;;;22.23;45.10
42001;BME280;27689;48.390;10.856;2022-09-12T15:27:11;95971.78;;;22.24;45.22
42001;BME280;27689;48.390;10.856;2022-09-12T15:29:55;95970.75;;;22.25;45.41
42001;BME280;27689;48.390;10.856;2022-09-12T15:32:41;95972.00;;;22.23;44.11
42001;BME280;27689;48.390;10.856;2022-09-12T15:35:32;95970.00;;;22.18;47.94
42001;BME280;27689;48.390;10.856;2022-09-12T15:38:16;95969.50;;;22.09;47.64
42001;BME280;27689;48.390;10.856;2022-09-12T15:41:01;95967.38;;;22.11;51.04
42001;BME280;27689;48.390;10.856;2022-09-12T15:43:45;95963.56;;;22.07;51.88
42001;BME280;27689;48.390;10.856;2022-09-12T15:46:31;95956.84;;;21.98;52.56
42001;BME280;27689;48.390;10.856;2022-09-12T15:49:15;95961.59;;;21.96;52.28
42001;BME280;27689;48.390;10.856;2022-09-12T15:51:59;95953.81;;;21.95;53.22
42001;BME280;27689;48.390;10.856;2022-09-12T15:54:43;95961.44;;;21.91;54.05
42001;BME280;27689;48.390;10.856;2022-09-12T15:57:27;95957.13;;;21.90;52.63
42001;BME280;27689;48.390;10.856;2022-09-12T16:00:12;95959.84;;;21.83;53.22
42001;BME280;27689;48.390;10.856;2022-09-12T16:02:56;95959.34;;;21.75;54.16
42001;BME280;27689;48.390;10.856;2022-09-12T16:05:40;95957.72;;;21.74;53.01
42001;BME280;27689;48.390;10.856;2022-09-12T16:08:24;95950.34;;;21.69;53.15
42001;BME280;27689;48.390;10.856;2022-09-12T16:11:18;95954.97;;;21.62;53.47
42001;BME280;27689;48.390;10.856;2022-09-12T16:14:03;95961.75;;;21.58;53.61